Pagrindinis puslapis
METAR-TAF:

METAR-TAF

Oro uostai :

Brunėjus, Brunėjus

platuma: 04-56N, ilguma: 114-56E, Aukštis: 22 m

Dabartinis oras

Ataskaita buvo paskelbta 34 minutes, ne 21:00 UTC
Vėjas 6 kt iš Šiaurės/Šiaurės Rytų
Temperatūra 26°C
Drėgmė 89%
Slėgis 1011 hPa
Matomumas 10 km arba daugiau
Mažai debesys ne aukštis 1400 ft
Su prošvaistėmis ne aukštis 30000 ft

METAR: WBSB 202100Z 03006KT 9999 FEW014 BKN300 26/24 Q1011 NOSIG

Laikas: 05:34 (21:34 UTC)

Prognozė

Ataskaita buvo paskelbta 4 valandos ir 44 minutes, ne 16:50 UTC
Prognozė galioja nuo 20 metu 18 UTC su 22 metu 00 UTC
Vėjas 13 kt iš Šiaurės/Šiaurės Rytų
Matomumas 10 km arba daugiau
Mažai debesys ne aukštis 1400 ft
Tapsmas
nuo 21 metu 03 UTC su 21 metu 05 UTC
Mažai debesys ne aukštis 1700 ft

TAF: WBSB 201650Z 2018/2200 03013KT 9999 FEW014 BECMG 2103/2105 FEW017

Orai ataskaitas ir orų prognozės (METAR, TAF).

turimą stotys yra geltonos ir raudonos taškus žemėlapyje.

Perkelti pele per norėdami pamatyti stoties vardą.

Tada spustelėkite, norėdami matyti oro stebėjimo ir prognozės.

Norėdami pakeisti žemėlapį: spustelėkite ant žalios mygtukų su juodo kryžiaus žemyn,; žalią mygtuką su brūkšneliu, jei norite nutolinti; arba žalių rodyklių gretimoms žemėlapius.


METAR-TAF: